Tucson, AZ (85749)

8:49 AM MST on September 05, 2015 (GMT -0700)
www.cactusjackstravel.com | | Change Station
CLOSE
Current Station
Personal Weather Station
Location: Tucson, AZ
Elevation: 2684 ft
Nearby Weather Stations

Elev 2684 ft 32.27 °N, 110.77 °W | Updated 10 minutes ago

Overcast
Overcast
70.6 °F
Feels Like 70.6 °F
N
0.0
Wind Variable Wind from NW
Gusts 5.0 mph

Today
High -- | Low -- °F
--% Chance of Precip.
Yesterday
High -- | Low -- °F
Precip. -- in
6:00 AM 6:42 PM
Waning Gibbous, 47% visible
Pressure 29.93 in
Visibility 9.0 miles
Clouds Clear
Dew Point 68 °F
Humidity 92%
Rainfall 0.00 in
Snow Depth Not available.
UV 0.7 out of 12
Pollen 3.70 out of 12
Air Quality Not available.
Flu Activity Not available.
METAR KDMA 051458Z AUTO 00000KT 9SM CLR 21/20 A3003 RMK AO2 RAB1358E33DZB33E48RAB48 SLP133 P0002 60002 T02120203 52023 $
Pressure 29.93 in
Visibility 9.0 miles
Clouds Clear
Dew Point 68 °F
Humidity 92%
Rainfall 0.00 in
Snow Depth Not available.
UV 0.7 out of 12
Pollen 3.70 out of 12
Air Quality Not available.
Flu Activity Not available.
METAR KDMA 051458Z AUTO 00000KT 9SM CLR 21/20 A3003 RMK AO2 RAB1358E33DZB33E48RAB48 SLP133 P0002 60002 T02120203 52023 $
Nowcast | as of 8:36 am MST on September 5, 2015

Scattered to numerous showers continue to move northeast at 15 mph across much of Southeast Arizona. Expect rainfall totals of a couple of hundredths to around a tenth of an inch in valley locations...and up to one-quarter of an inch in the mountains through 11 am MST. A rumble of thunder may also be possible.

×

10-Day Weather Forecast

×

Almanac

Astronomy

Sep. 05, 2015 Rise Set
Actual Time
Civil Twilight
Nautical Twilight
Astronomical Twilight
Moon
Length of Visible Light
Length of Day
Tomorrow will be .
, % of the Moon is Illuminated

Today's Extremes

State Highs State Lows

Community

WunderPhotos

Upload Photos

1,852,483 photos uploaded!

WunderBlogs® & News

Nearby

Air Quality

  Air Quality AQ Index Pollutant
Not available.

Snow Depth

Station Depth Elevation

Earthquake Activity

City Distance Mag. Time & Date
Minimum magnitude displayed is 2.5.

Coastal Water Temperatures

Place Temperature

Stations

Nearby Weather Stations

Station Location Temp. Windchill Dew Point Humidity Wind Precip. Elev Updated Type